BRU weather

Brussels Airport
Brussels, Brussels-Capital Region, Belgium

Public forecast

Using degrees Celsius for public forecast. Weather courtesy of forecast.io.

METAR (pilot weather report)

Retrieved 2017/04/27 00:50 UTC (15 minutes ago):

EBBR 270050Z 28003KT CAVOK 02/00 Q1016 NOSIG

TAF (pilot weather forecast)

Forecast is more than 12 hours old.

Retrieved 2017/04/26 00:27 UTC (1 day ago):

TAF TAF EBBR 262300Z 2700/2806 30005KT 9999 SCT035 PROB30 TEMPO 2703/2706 4000 BR PROB30 TEMPO 2710/2717 4000 SHRA PROB40 TEMPO 2803/2806 4000 RA SHRA SCT008 BKN012